sensor_id;sensor_type;location;lat;lon;timestamp;P1;durP1;ratioP1;P2;durP2;ratioP2
58260;SDS011;44058;52.898;6.502;2023-04-10T00:00:32;46.00;;;32.80;;
58260;SDS011;44058;52.898;6.502;2023-04-10T00:02:59;45.92;;;33.17;;
58260;SDS011;44058;52.898;6.502;2023-04-10T00:05:26;46.40;;;33.20;;
58260;SDS011;44058;52.898;6.502;2023-04-10T00:07:52;45.83;;;33.13;;
58260;SDS011;44058;52.898;6.502;2023-04-10T00:10:20;47.22;;;33.95;;
58260;SDS011;44058;52.898;6.502;2023-04-10T00:12:47;47.25;;;34.08;;
58260;SDS011;44058;52.898;6.502;2023-04-10T00:15:15;45.92;;;33.72;;
58260;SDS011;44058;52.898;6.502;2023-04-10T00:17:41;48.25;;;33.13;;
58260;SDS011;44058;52.898;6.502;2023-04-10T00:20:07;47.38;;;33.83;;
58260;SDS011;44058;52.898;6.502;2023-04-10T00:22:34;42.17;;;32.10;;
58260;SDS011;44058;52.898;6.502;2023-04-10T00:25:00;45.15;;;33.10;;
58260;SDS011;44058;52.898;6.502;2023-04-10T00:27:26;45.67;;;33.92;;
58260;SDS011;44058;52.898;6.502;2023-04-10T00:29:52;44.92;;;33.53;;
58260;SDS011;44058;52.898;6.502;2023-04-10T00:32:18;48.22;;;34.85;;
58260;SDS011;44058;52.898;6.502;2023-04-10T00:34:46;44.80;;;32.65;;
58260;SDS011;44058;52.898;6.502;2023-04-10T00:37:12;48.13;;;34.08;;
58260;SDS011;44058;52.898;6.502;2023-04-10T00:39:39;53.72;;;36.67;;
58260;SDS011;44058;52.898;6.502;2023-04-10T00:42:05;48.35;;;33.83;;
58260;SDS011;44058;52.898;6.502;2023-04-10T00:44:34;47.45;;;35.20;;
58260;SDS011;44058;52.898;6.502;2023-04-10T00:47:04;46.78;;;33.40;;
58260;SDS011;44058;52.898;6.502;2023-04-10T00:49:31;47.70;;;33.95;;
58260;SDS011;44058;52.898;6.502;2023-04-10T00:51:58;48.08;;;34.30;;
58260;SDS011;44058;52.898;6.502;2023-04-10T00:54:25;47.30;;;35.47;;
58260;SDS011;44058;52.898;6.502;2023-04-10T00:56:51;46.63;;;34.78;;
58260;SDS011;44058;52.898;6.502;2023-04-10T00:59:17;48.35;;;35.50;;
58260;SDS011;44058;52.898;6.502;2023-04-10T01:01:43;54.45;;;36.97;;
58260;SDS011;44058;52.898;6.502;2023-04-10T01:04:16;51.83;;;36.72;;
58260;SDS011;44058;52.898;6.502;2023-04-10T01:07:03;46.45;;;33.75;;
58260;SDS011;44058;52.898;6.502;2023-04-10T01:12:23;50.58;;;36.80;;
58260;SDS011;44058;52.898;6.502;2023-04-10T01:14:52;48.97;;;36.72;;
58260;SDS011;44058;52.898;6.502;2023-04-10T01:17:27;54.47;;;39.50;;
58260;SDS011;44058;52.898;6.502;2023-04-10T01:19:58;51.92;;;38.38;;
58260;SDS011;44058;52.898;6.502;2023-04-10T01:22:36;55.38;;;38.33;;
58260;SDS011;44058;52.898;6.502;2023-04-10T01:30:35;53.90;;;38.15;;
58260;SDS011;44058;52.898;6.502;2023-04-10T01:33:01;55.13;;;39.60;;
58260;SDS011;44058;52.898;6.502;2023-04-10T01:35:28;56.67;;;40.67;;
58260;SDS011;44058;52.898;6.502;2023-04-10T01:37:55;52.88;;;39.05;;
58260;SDS011;44058;52.898;6.502;2023-04-10T01:40:23;59.67;;;42.83;;
58260;SDS011;44058;52.898;6.502;2023-04-10T01:42:52;58.00;;;41.88;;
58260;SDS011;44058;52.898;6.502;2023-04-10T01:45:19;55.88;;;40.70;;
58260;SDS011;44058;52.898;6.502;2023-04-10T01:47:47;57.47;;;41.83;;
58260;SDS011;44058;52.898;6.502;2023-04-10T01:50:13;56.60;;;40.95;;
58260;SDS011;44058;52.898;6.502;2023-04-10T01:52:40;57.92;;;41.55;;
58260;SDS011;44058;52.898;6.502;2023-04-10T01:55:06;53.92;;;40.25;;
58260;SDS011;44058;52.898;6.502;2023-04-10T01:57:33;58.75;;;40.05;;
58260;SDS011;44058;52.898;6.502;2023-04-10T02:00:00;58.50;;;43.25;;
58260;SDS011;44058;52.898;6.502;2023-04-10T02:02:30;57.47;;;41.97;;
58260;SDS011;44058;52.898;6.502;2023-04-10T02:04:56;57.35;;;42.17;;
58260;SDS011;44058;52.898;6.502;2023-04-10T02:07:30;58.15;;;42.60;;
58260;SDS011;44058;52.898;6.502;2023-04-10T02:10:06;61.67;;;43.42;;
58260;SDS011;44058;52.898;6.502;2023-04-10T02:15:40;65.15;;;44.67;;
58260;SDS011;44058;52.898;6.502;2023-04-10T02:18:08;64.53;;;46.25;;
58260;SDS011;44058;52.898;6.502;2023-04-10T02:20:35;58.67;;;44.75;;
58260;SDS011;44058;52.898;6.502;2023-04-10T02:23:01;61.80;;;46.17;;
58260;SDS011;44058;52.898;6.502;2023-04-10T02:25:30;65.75;;;44.47;;
58260;SDS011;44058;52.898;6.502;2023-04-10T02:28:04;63.95;;;45.53;;
58260;SDS011;44058;52.898;6.502;2023-04-10T02:30:31;64.78;;;46.90;;
58260;SDS011;44058;52.898;6.502;2023-04-10T02:32:57;61.92;;;44.28;;
58260;SDS011;44058;52.898;6.502;2023-04-10T02:35:27;65.03;;;47.55;;
58260;SDS011;44058;52.898;6.502;2023-04-10T02:37:53;66.05;;;46.35;;
58260;SDS011;44058;52.898;6.502;2023-04-10T02:40:22;64.15;;;47.45;;
58260;SDS011;44058;52.898;6.502;2023-04-10T02:42:49;65.88;;;49.60;;
58260;SDS011;44058;52.898;6.502;2023-04-10T02:45:15;64.32;;;46.63;;
58260;SDS011;44058;52.898;6.502;2023-04-10T02:47:42;65.97;;;45.72;;
58260;SDS011;44058;52.898;6.502;2023-04-10T02:50:08;67.97;;;47.40;;
58260;SDS011;44058;52.898;6.502;2023-04-10T02:52:34;61.03;;;44.72;;
58260;SDS011;44058;52.898;6.502;2023-04-10T02:55:01;66.95;;;48.40;;
58260;SDS011;44058;52.898;6.502;2023-04-10T02:57:27;63.35;;;46.72;;
58260;SDS011;44058;52.898;6.502;2023-04-10T02:59:53;66.90;;;48.03;;
58260;SDS011;44058;52.898;6.502;2023-04-10T03:02:19;72.70;;;50.20;;
58260;SDS011;44058;52.898;6.502;2023-04-10T03:04:46;68.07;;;48.88;;
58260;SDS011;44058;52.898;6.502;2023-04-10T03:07:12;64.60;;;48.63;;
58260;SDS011;44058;52.898;6.502;2023-04-10T03:09:38;65.80;;;46.55;;
58260;SDS011;44058;52.898;6.502;2023-04-10T03:12:04;70.53;;;48.03;;
58260;SDS011;44058;52.898;6.502;2023-04-10T03:14:30;69.35;;;48.15;;
58260;SDS011;44058;52.898;6.502;2023-04-10T03:16:56;66.50;;;46.53;;
58260;SDS011;44058;52.898;6.502;2023-04-10T03:19:23;64.63;;;46.83;;
58260;SDS011;44058;52.898;6.502;2023-04-10T03:21:50;65.45;;;48.03;;
58260;SDS011;44058;52.898;6.502;2023-04-10T03:24:17;69.47;;;48.30;;
58260;SDS011;44058;52.898;6.502;2023-04-10T03:26:43;68.68;;;48.05;;
58260;SDS011;44058;52.898;6.502;2023-04-10T03:29:10;71.00;;;49.45;;
58260;SDS011;44058;52.898;6.502;2023-04-10T03:31:36;65.72;;;47.00;;
58260;SDS011;44058;52.898;6.502;2023-04-10T03:34:02;65.47;;;47.97;;
58260;SDS011;44058;52.898;6.502;2023-04-10T03:36:28;65.90;;;48.30;;
58260;SDS011;44058;52.898;6.502;2023-04-10T03:38:54;68.38;;;47.47;;
58260;SDS011;44058;52.898;6.502;2023-04-10T03:41:20;65.47;;;48.58;;
58260;SDS011;44058;52.898;6.502;2023-04-10T03:43:49;64.10;;;46.20;;
58260;SDS011;44058;52.898;6.502;2023-04-10T03:46:15;67.65;;;48.65;;
58260;SDS011;44058;52.898;6.502;2023-04-10T03:48:41;68.38;;;48.40;;
58260;SDS011;44058;52.898;6.502;2023-04-10T03:51:08;64.35;;;47.60;;
58260;SDS011;44058;52.898;6.502;2023-04-10T03:53:34;65.30;;;46.58;;
58260;SDS011;44058;52.898;6.502;2023-04-10T03:56:01;65.22;;;46.47;;
58260;SDS011;44058;52.898;6.502;2023-04-10T03:58:27;66.10;;;47.72;;
58260;SDS011;44058;52.898;6.502;2023-04-10T04:00:53;65.25;;;46.72;;
58260;SDS011;44058;52.898;6.502;2023-04-10T04:03:20;64.50;;;46.78;;
58260;SDS011;44058;52.898;6.502;2023-04-10T04:05:46;64.35;;;45.45;;
58260;SDS011;44058;52.898;6.502;2023-04-10T04:08:12;67.75;;;47.20;;
58260;SDS011;44058;52.898;6.502;2023-04-10T04:10:38;62.22;;;45.40;;
58260;SDS011;44058;52.898;6.502;2023-04-10T04:13:04;64.93;;;46.85;;
58260;SDS011;44058;52.898;6.502;2023-04-10T04:15:30;65.00;;;46.72;;
58260;SDS011;44058;52.898;6.502;2023-04-10T04:17:56;62.45;;;45.42;;
58260;SDS011;44058;52.898;6.502;2023-04-10T04:20:24;62.28;;;45.58;;
58260;SDS011;44058;52.898;6.502;2023-04-10T04:22:50;63.30;;;45.45;;
58260;SDS011;44058;52.898;6.502;2023-04-10T04:25:16;61.97;;;44.10;;
58260;SDS011;44058;52.898;6.502;2023-04-10T04:27:43;65.38;;;45.75;;
58260;SDS011;44058;52.898;6.502;2023-04-10T04:30:10;59.97;;;44.40;;
58260;SDS011;44058;52.898;6.502;2023-04-10T04:32:36;58.70;;;43.40;;
58260;SDS011;44058;52.898;6.502;2023-04-10T04:35:02;59.45;;;44.13;;
58260;SDS011;44058;52.898;6.502;2023-04-10T04:37:28;60.97;;;43.80;;
58260;SDS011;44058;52.898;6.502;2023-04-10T04:39:54;63.30;;;42.85;;
58260;SDS011;44058;52.898;6.502;2023-04-10T04:42:20;61.92;;;45.05;;
58260;SDS011;44058;52.898;6.502;2023-04-10T04:44:48;60.10;;;42.92;;
58260;SDS011;44058;52.898;6.502;2023-04-10T04:47:14;60.00;;;42.78;;
58260;SDS011;44058;52.898;6.502;2023-04-10T04:49:41;59.10;;;42.65;;
58260;SDS011;44058;52.898;6.502;2023-04-10T04:52:07;55.33;;;41.88;;
58260;SDS011;44058;52.898;6.502;2023-04-10T04:54:33;58.17;;;42.42;;
58260;SDS011;44058;52.898;6.502;2023-04-10T04:56:59;60.55;;;44.13;;
58260;SDS011;44058;52.898;6.502;2023-04-10T04:59:25;56.67;;;41.83;;
58260;SDS011;44058;52.898;6.502;2023-04-10T05:01:51;58.85;;;42.53;;
58260;SDS011;44058;52.898;6.502;2023-04-10T05:04:17;55.97;;;41.30;;
58260;SDS011;44058;52.898;6.502;2023-04-10T05:06:45;60.08;;;42.95;;
58260;SDS011;44058;52.898;6.502;2023-04-10T05:09:11;56.90;;;40.88;;
58260;SDS011;44058;52.898;6.502;2023-04-10T05:11:37;55.15;;;40.00;;
58260;SDS011;44058;52.898;6.502;2023-04-10T05:14:03;49.97;;;38.15;;
58260;SDS011;44058;52.898;6.502;2023-04-10T05:16:29;53.15;;;39.05;;
58260;SDS011;44058;52.898;6.502;2023-04-10T05:18:55;51.78;;;37.63;;
58260;SDS011;44058;52.898;6.502;2023-04-10T05:21:21;51.72;;;36.67;;
58260;SDS011;44058;52.898;6.502;2023-04-10T05:23:47;53.03;;;36.83;;
58260;SDS011;44058;52.898;6.502;2023-04-10T05:26:13;51.38;;;35.05;;
58260;SDS011;44058;52.898;6.502;2023-04-10T05:28:39;49.83;;;35.55;;
58260;SDS011;44058;52.898;6.502;2023-04-10T05:31:05;50.13;;;35.75;;
58260;SDS011;44058;52.898;6.502;2023-04-10T05:33:31;47.70;;;33.45;;
58260;SDS011;44058;52.898;6.502;2023-04-10T05:35:58;47.88;;;33.88;;
58260;SDS011;44058;52.898;6.502;2023-04-10T05:38:24;48.83;;;33.33;;
58260;SDS011;44058;52.898;6.502;2023-04-10T05:40:50;43.65;;;32.42;;
58260;SDS011;44058;52.898;6.502;2023-04-10T05:43:16;48.65;;;34.72;;
58260;SDS011;44058;52.898;6.502;2023-04-10T05:45:43;47.75;;;32.35;;
58260;SDS011;44058;52.898;6.502;2023-04-10T05:48:09;46.63;;;33.13;;
58260;SDS011;44058;52.898;6.502;2023-04-10T05:50:35;45.00;;;31.70;;
58260;SDS011;44058;52.898;6.502;2023-04-10T05:53:01;44.83;;;31.98;;
58260;SDS011;44058;52.898;6.502;2023-04-10T05:55:29;49.63;;;32.38;;
58260;SDS011;44058;52.898;6.502;2023-04-10T05:57:56;45.75;;;32.33;;
58260;SDS011;44058;52.898;6.502;2023-04-10T06:00:22;46.28;;;31.75;;
58260;SDS011;44058;52.898;6.502;2023-04-10T06:02:48;45.78;;;32.67;;
58260;SDS011;44058;52.898;6.502;2023-04-10T06:05:15;49.60;;;33.03;;
58260;SDS011;44058;52.898;6.502;2023-04-10T06:07:41;46.88;;;32.47;;
58260;SDS011;44058;52.898;6.502;2023-04-10T06:10:07;45.63;;;32.10;;
58260;SDS011;44058;52.898;6.502;2023-04-10T06:12:33;45.40;;;32.17;;
58260;SDS011;44058;52.898;6.502;2023-04-10T06:14:59;44.38;;;31.02;;
58260;SDS011;44058;52.898;6.502;2023-04-10T06:17:25;44.92;;;31.98;;
58260;SDS011;44058;52.898;6.502;2023-04-10T06:19:52;43.25;;;32.08;;
58260;SDS011;44058;52.898;6.502;2023-04-10T06:22:20;43.83;;;33.15;;
58260;SDS011;44058;52.898;6.502;2023-04-10T06:24:46;42.10;;;31.27;;
58260;SDS011;44058;52.898;6.502;2023-04-10T06:27:13;44.78;;;32.80;;
58260;SDS011;44058;52.898;6.502;2023-04-10T06:29:39;44.05;;;32.05;;
58260;SDS011;44058;52.898;6.502;2023-04-10T06:32:06;45.40;;;32.40;;
58260;SDS011;44058;52.898;6.502;2023-04-10T06:34:32;48.65;;;31.42;;
58260;SDS011;44058;52.898;6.502;2023-04-10T06:36:58;46.90;;;32.03;;
58260;SDS011;44058;52.898;6.502;2023-04-10T06:39:24;45.83;;;31.25;;
58260;SDS011;44058;52.898;6.502;2023-04-10T06:41:50;43.28;;;30.77;;
58260;SDS011;44058;52.898;6.502;2023-04-10T06:44:16;45.97;;;31.52;;
58260;SDS011;44058;52.898;6.502;2023-04-10T06:46:43;43.60;;;31.02;;
58260;SDS011;44058;52.898;6.502;2023-04-10T06:49:10;45.78;;;31.42;;
58260;SDS011;44058;52.898;6.502;2023-04-10T06:51:36;45.63;;;30.58;;
58260;SDS011;44058;52.898;6.502;2023-04-10T06:54:02;44.47;;;30.98;;
58260;SDS011;44058;52.898;6.502;2023-04-10T06:56:28;44.97;;;31.60;;
58260;SDS011;44058;52.898;6.502;2023-04-10T06:58:54;42.03;;;30.58;;
58260;SDS011;44058;52.898;6.502;2023-04-10T07:01:21;42.45;;;30.35;;
58260;SDS011;44058;52.898;6.502;2023-04-10T07:03:47;43.92;;;31.35;;
58260;SDS011;44058;52.898;6.502;2023-04-10T07:06:13;43.15;;;30.42;;
58260;SDS011;44058;52.898;6.502;2023-04-10T07:08:40;39.95;;;29.05;;
58260;SDS011;44058;52.898;6.502;2023-04-10T07:11:06;43.83;;;29.42;;
58260;SDS011;44058;52.898;6.502;2023-04-10T07:13:32;39.03;;;29.02;;
58260;SDS011;44058;52.898;6.502;2023-04-10T07:15:59;40.78;;;29.08;;
58260;SDS011;44058;52.898;6.502;2023-04-10T07:18:25;38.58;;;27.80;;
58260;SDS011;44058;52.898;6.502;2023-04-10T07:20:51;38.10;;;27.50;;
58260;SDS011;44058;52.898;6.502;2023-04-10T07:23:18;38.90;;;27.83;;
58260;SDS011;44058;52.898;6.502;2023-04-10T07:25:45;38.08;;;25.95;;
58260;SDS011;44058;52.898;6.502;2023-04-10T07:28:11;39.22;;;28.02;;
58260;SDS011;44058;52.898;6.502;2023-04-10T07:30:37;36.03;;;26.35;;
58260;SDS011;44058;52.898;6.502;2023-04-10T07:33:03;35.95;;;26.35;;
58260;SDS011;44058;52.898;6.502;2023-04-10T07:35:29;33.22;;;25.23;;
58260;SDS011;44058;52.898;6.502;2023-04-10T07:37:55;33.17;;;23.35;;
58260;SDS011;44058;52.898;6.502;2023-04-10T07:40:21;32.38;;;23.88;;
58260;SDS011;44058;52.898;6.502;2023-04-10T07:42:47;34.60;;;23.45;;
58260;SDS011;44058;52.898;6.502;2023-04-10T07:45:13;31.20;;;23.10;;
58260;SDS011;44058;52.898;6.502;2023-04-10T07:47:40;32.83;;;23.27;;
58260;SDS011;44058;52.898;6.502;2023-04-10T07:50:06;29.33;;;22.77;;
58260;SDS011;44058;52.898;6.502;2023-04-10T07:52:33;30.67;;;21.92;;
58260;SDS011;44058;52.898;6.502;2023-04-10T07:55:02;30.67;;;21.42;;
58260;SDS011;44058;52.898;6.502;2023-04-10T07:57:28;27.67;;;21.25;;
58260;SDS011;44058;52.898;6.502;2023-04-10T07:59:56;30.63;;;20.95;;
58260;SDS011;44058;52.898;6.502;2023-04-10T08:02:22;27.80;;;20.38;;
58260;SDS011;44058;52.898;6.502;2023-04-10T08:04:48;26.13;;;19.75;;
58260;SDS011;44058;52.898;6.502;2023-04-10T08:07:15;25.75;;;18.38;;
58260;SDS011;44058;52.898;6.502;2023-04-10T08:09:41;27.98;;;19.08;;
58260;SDS011;44058;52.898;6.502;2023-04-10T08:12:07;25.63;;;18.63;;
58260;SDS011;44058;52.898;6.502;2023-04-10T08:14:33;24.33;;;18.45;;
58260;SDS011;44058;52.898;6.502;2023-04-10T08:16:59;25.95;;;17.95;;
58260;SDS011;44058;52.898;6.502;2023-04-10T08:19:25;26.13;;;19.23;;
58260;SDS011;44058;52.898;6.502;2023-04-10T08:21:51;23.40;;;17.98;;
58260;SDS011;44058;52.898;6.502;2023-04-10T08:24:17;25.45;;;17.83;;
58260;SDS011;44058;52.898;6.502;2023-04-10T08:26:45;21.48;;;16.90;;
58260;SDS011;44058;52.898;6.502;2023-04-10T08:29:11;23.73;;;17.42;;
58260;SDS011;44058;52.898;6.502;2023-04-10T08:31:37;24.42;;;17.40;;
58260;SDS011;44058;52.898;6.502;2023-04-10T08:34:03;19.70;;;16.83;;
58260;SDS011;44058;52.898;6.502;2023-04-10T08:36:29;19.27;;;15.43;;
58260;SDS011;44058;52.898;6.502;2023-04-10T08:38:55;21.67;;;16.83;;
58260;SDS011;44058;52.898;6.502;2023-04-10T08:41:21;21.00;;;16.27;;
58260;SDS011;44058;52.898;6.502;2023-04-10T08:43:48;20.63;;;15.63;;
58260;SDS011;44058;52.898;6.502;2023-04-10T08:46:15;20.23;;;15.30;;
58260;SDS011;44058;52.898;6.502;2023-04-10T08:51:16;19.65;;;14.93;;
58260;SDS011;44058;52.898;6.502;2023-04-10T08:53:43;22.33;;;15.70;;
58260;SDS011;44058;52.898;6.502;2023-04-10T08:56:11;20.60;;;15.00;;
58260;SDS011;44058;52.898;6.502;2023-04-10T08:58:40;17.98;;;14.00;;
58260;SDS011;44058;52.898;6.502;2023-04-10T09:01:06;16.98;;;13.73;;
58260;SDS011;44058;52.898;6.502;2023-04-10T09:03:33;17.98;;;14.55;;
58260;SDS011;44058;52.898;6.502;2023-04-10T09:06:03;16.77;;;12.88;;
58260;SDS011;44058;52.898;6.502;2023-04-10T09:08:29;15.95;;;12.55;;
58260;SDS011;44058;52.898;6.502;2023-04-10T09:10:56;16.65;;;12.63;;
58260;SDS011;44058;52.898;6.502;2023-04-10T09:13:35;17.02;;;13.57;;
58260;SDS011;44058;52.898;6.502;2023-04-10T09:16:02;14.60;;;12.35;;
58260;SDS011;44058;52.898;6.502;2023-04-10T09:21:15;13.85;;;11.90;;
58260;SDS011;44058;52.898;6.502;2023-04-10T09:23:42;15.45;;;11.15;;
58260;SDS011;44058;52.898;6.502;2023-04-10T09:26:24;17.92;;;12.05;;
58260;SDS011;44058;52.898;6.502;2023-04-10T09:28:58;15.00;;;11.57;;
58260;SDS011;44058;52.898;6.502;2023-04-10T09:31:35;13.90;;;11.50;;
58260;SDS011;44058;52.898;6.502;2023-04-10T09:36:37;14.32;;;10.98;;
58260;SDS011;44058;52.898;6.502;2023-04-10T09:39:05;12.57;;;10.67;;
58260;SDS011;44058;52.898;6.502;2023-04-10T09:41:31;14.43;;;10.98;;
58260;SDS011;44058;52.898;6.502;2023-04-10T09:44:07;13.73;;;10.55;;
58260;SDS011;44058;52.898;6.502;2023-04-10T09:46:34;12.93;;;10.32;;
58260;SDS011;44058;52.898;6.502;2023-04-10T09:49:00;11.48;;;9.52;;
58260;SDS011;44058;52.898;6.502;2023-04-10T09:51:32;11.57;;;9.40;;
58260;SDS011;44058;52.898;6.502;2023-04-10T09:53:59;11.73;;;9.73;;
58260;SDS011;44058;52.898;6.502;2023-04-10T09:56:26;11.25;;;8.60;;
58260;SDS011;44058;52.898;6.502;2023-04-10T09:58:54;10.48;;;8.82;;
58260;SDS011;44058;52.898;6.502;2023-04-10T10:01:21;10.10;;;8.70;;
58260;SDS011;44058;52.898;6.502;2023-04-10T10:03:47;11.15;;;9.02;;
58260;SDS011;44058;52.898;6.502;2023-04-10T10:06:13;11.90;;;9.68;;
58260;SDS011;44058;52.898;6.502;2023-04-10T10:08:40;10.77;;;8.90;;
58260;SDS011;44058;52.898;6.502;2023-04-10T10:11:06;11.65;;;8.63;;
58260;SDS011;44058;52.898;6.502;2023-04-10T10:13:43;10.30;;;8.45;;
58260;SDS011;44058;52.898;6.502;2023-04-10T10:16:20;10.43;;;9.15;;
58260;SDS011;44058;52.898;6.502;2023-04-10T10:18:50;10.88;;;8.73;;
58260;SDS011;44058;52.898;6.502;2023-04-10T10:21:17;9.18;;;8.23;;
58260;SDS011;44058;52.898;6.502;2023-04-10T10:23:44;9.57;;;8.48;;
58260;SDS011;44058;52.898;6.502;2023-04-10T10:26:12;10.85;;;8.52;;
58260;SDS011;44058;52.898;6.502;2023-04-10T10:28:39;9.70;;;8.45;;
58260;SDS011;44058;52.898;6.502;2023-04-10T10:31:06;10.98;;;8.40;;
58260;SDS011;44058;52.898;6.502;2023-04-10T10:33:34;11.30;;;7.72;;
58260;SDS011;44058;52.898;6.502;2023-04-10T10:36:01;8.45;;;7.55;;
58260;SDS011;44058;52.898;6.502;2023-04-10T10:38:29;9.25;;;7.97;;
58260;SDS011;44058;52.898;6.502;2023-04-10T10:41:08;9.93;;;7.70;;
58260;SDS011;44058;52.898;6.502;2023-04-10T10:46:20;8.82;;;7.63;;
58260;SDS011;44058;52.898;6.502;2023-04-10T10:48:56;8.60;;;7.05;;
58260;SDS011;44058;52.898;6.502;2023-04-10T10:51:23;9.68;;;7.35;;
58260;SDS011;44058;52.898;6.502;2023-04-10T10:53:49;7.57;;;6.75;;
58260;SDS011;44058;52.898;6.502;2023-04-10T10:58:51;7.65;;;6.63;;
58260;SDS011;44058;52.898;6.502;2023-04-10T11:01:18;7.35;;;6.45;;
58260;SDS011;44058;52.898;6.502;2023-04-10T11:03:45;7.50;;;6.30;;
58260;SDS011;44058;52.898;6.502;2023-04-10T11:06:14;7.85;;;7.05;;
58260;SDS011;44058;52.898;6.502;2023-04-10T11:08:44;8.15;;;6.35;;
58260;SDS011;44058;52.898;6.502;2023-04-10T11:11:14;8.57;;;6.70;;
58260;SDS011;44058;52.898;6.502;2023-04-10T11:16:16;6.45;;;5.72;;
58260;SDS011;44058;52.898;6.502;2023-04-10T11:21:13;6.32;;;5.72;;
58260;SDS011;44058;52.898;6.502;2023-04-10T11:31:43;8.80;;;4.88;;
58260;SDS011;44058;52.898;6.502;2023-04-10T11:34:10;6.32;;;5.10;;
58260;SDS011;44058;52.898;6.502;2023-04-10T11:36:40;6.05;;;4.93;;
58260;SDS011;44058;52.898;6.502;2023-04-10T11:39:07;7.28;;;5.03;;
58260;SDS011;44058;52.898;6.502;2023-04-10T11:41:34;6.38;;;5.15;;
58260;SDS011;44058;52.898;6.502;2023-04-10T11:44:01;6.50;;;5.50;;
58260;SDS011;44058;52.898;6.502;2023-04-10T11:46:28;5.35;;;4.85;;
58260;SDS011;44058;52.898;6.502;2023-04-10T11:48:57;5.53;;;4.90;;
58260;SDS011;44058;52.898;6.502;2023-04-10T11:51:24;5.97;;;5.38;;
58260;SDS011;44058;52.898;6.502;2023-04-10T11:54:05;5.57;;;4.80;;
58260;SDS011;44058;52.898;6.502;2023-04-10T11:56:32;6.15;;;4.95;;
58260;SDS011;44058;52.898;6.502;2023-04-10T11:58:58;6.32;;;5.15;;
58260;SDS011;44058;52.898;6.502;2023-04-10T12:01:24;5.38;;;4.75;;
58260;SDS011;44058;52.898;6.502;2023-04-10T12:03:50;7.15;;;5.30;;
58260;SDS011;44058;52.898;6.502;2023-04-10T12:06:16;5.40;;;4.88;;
58260;SDS011;44058;52.898;6.502;2023-04-10T12:08:46;5.28;;;4.60;;
58260;SDS011;44058;52.898;6.502;2023-04-10T12:11:22;5.97;;;4.85;;
58260;SDS011;44058;52.898;6.502;2023-04-10T12:13:54;6.70;;;4.80;;
58260;SDS011;44058;52.898;6.502;2023-04-10T12:16:21;5.95;;;4.65;;
58260;SDS011;44058;52.898;6.502;2023-04-10T12:18:47;6.45;;;5.38;;
58260;SDS011;44058;52.898;6.502;2023-04-10T12:21:14;6.40;;;5.25;;
58260;SDS011;44058;52.898;6.502;2023-04-10T12:23:40;6.57;;;5.07;;
58260;SDS011;44058;52.898;6.502;2023-04-10T12:28:36;6.22;;;4.70;;
58260;SDS011;44058;52.898;6.502;2023-04-10T12:31:02;5.72;;;4.60;;
58260;SDS011;44058;52.898;6.502;2023-04-10T12:33:28;9.00;;;5.20;;
58260;SDS011;44058;52.898;6.502;2023-04-10T12:35:55;5.55;;;4.97;;
58260;SDS011;44058;52.898;6.502;2023-04-10T12:38:33;6.80;;;5.30;;
58260;SDS011;44058;52.898;6.502;2023-04-10T12:41:00;8.57;;;4.97;;
58260;SDS011;44058;52.898;6.502;2023-04-10T12:43:33;5.85;;;4.93;;
58260;SDS011;44058;52.898;6.502;2023-04-10T12:45:59;7.18;;;4.90;;
58260;SDS011;44058;52.898;6.502;2023-04-10T12:48:26;6.75;;;4.72;;
58260;SDS011;44058;52.898;6.502;2023-04-10T12:50:52;5.07;;;4.68;;
58260;SDS011;44058;52.898;6.502;2023-04-10T12:53:19;5.80;;;4.93;;
58260;SDS011;44058;52.898;6.502;2023-04-10T12:55:55;6.78;;;4.40;;
58260;SDS011;44058;52.898;6.502;2023-04-10T12:58:23;5.37;;;4.87;;
58260;SDS011;44058;52.898;6.502;2023-04-10T13:00:53;5.93;;;4.80;;
58260;SDS011;44058;52.898;6.502;2023-04-10T13:03:20;6.70;;;5.13;;
58260;SDS011;44058;52.898;6.502;2023-04-10T13:05:46;8.80;;;5.40;;
58260;SDS011;44058;52.898;6.502;2023-04-10T13:08:13;5.70;;;5.20;;
58260;SDS011;44058;52.898;6.502;2023-04-10T13:10:39;5.78;;;5.03;;
58260;SDS011;44058;52.898;6.502;2023-04-10T13:13:06;7.57;;;4.97;;
58260;SDS011;44058;52.898;6.502;2023-04-10T13:15:32;5.00;;;4.60;;
58260;SDS011;44058;52.898;6.502;2023-04-10T13:17:59;6.43;;;5.10;;
58260;SDS011;44058;52.898;6.502;2023-04-10T13:20:25;6.50;;;4.82;;
58260;SDS011;44058;52.898;6.502;2023-04-10T13:22:51;6.28;;;4.72;;
58260;SDS011;44058;52.898;6.502;2023-04-10T13:25:17;7.13;;;4.50;;
58260;SDS011;44058;52.898;6.502;2023-04-10T13:27:43;5.53;;;4.95;;
58260;SDS011;44058;52.898;6.502;2023-04-10T13:30:09;5.72;;;4.50;;
58260;SDS011;44058;52.898;6.502;2023-04-10T13:32:35;6.15;;;4.70;;
58260;SDS011;44058;52.898;6.502;2023-04-10T13:35:01;5.53;;;4.72;;
58260;SDS011;44058;52.898;6.502;2023-04-10T13:37:27;8.35;;;4.65;;
58260;SDS011;44058;52.898;6.502;2023-04-10T13:39:54;6.30;;;5.10;;
58260;SDS011;44058;52.898;6.502;2023-04-10T13:42:20;5.47;;;4.90;;
58260;SDS011;44058;52.898;6.502;2023-04-10T13:44:46;5.60;;;4.55;;
58260;SDS011;44058;52.898;6.502;2023-04-10T13:47:13;6.30;;;4.60;;
58260;SDS011;44058;52.898;6.502;2023-04-10T13:49:39;5.70;;;4.85;;
58260;SDS011;44058;52.898;6.502;2023-04-10T13:52:05;7.10;;;5.18;;
58260;SDS011;44058;52.898;6.502;2023-04-10T13:54:32;5.72;;;5.15;;
58260;SDS011;44058;52.898;6.502;2023-04-10T13:56:58;6.45;;;5.15;;
58260;SDS011;44058;52.898;6.502;2023-04-10T13:59:24;5.35;;;4.80;;
58260;SDS011;44058;52.898;6.502;2023-04-10T14:01:50;9.88;;;4.70;;
58260;SDS011;44058;52.898;6.502;2023-04-10T14:04:17;7.68;;;4.47;;
58260;SDS011;44058;52.898;6.502;2023-04-10T14:06:43;6.05;;;4.82;;
58260;SDS011;44058;52.898;6.502;2023-04-10T14:09:09;6.38;;;4.80;;
58260;SDS011;44058;52.898;6.502;2023-04-10T14:11:35;6.70;;;4.72;;
58260;SDS011;44058;52.898;6.502;2023-04-10T14:14:01;5.72;;;4.50;;
58260;SDS011;44058;52.898;6.502;2023-04-10T14:16:27;5.00;;;4.50;;
58260;SDS011;44058;52.898;6.502;2023-04-10T14:18:53;7.30;;;5.05;;
58260;SDS011;44058;52.898;6.502;2023-04-10T14:21:19;6.65;;;4.32;;
58260;SDS011;44058;52.898;6.502;2023-04-10T14:23:46;5.63;;;5.03;;
58260;SDS011;44058;52.898;6.502;2023-04-10T14:26:12;6.28;;;4.70;;
58260;SDS011;44058;52.898;6.502;2023-04-10T14:28:38;5.85;;;4.85;;
58260;SDS011;44058;52.898;6.502;2023-04-10T14:31:04;5.28;;;4.78;;
58260;SDS011;44058;52.898;6.502;2023-04-10T14:33:30;5.60;;;4.95;;
58260;SDS011;44058;52.898;6.502;2023-04-10T14:35:56;5.20;;;4.68;;
58260;SDS011;44058;52.898;6.502;2023-04-10T14:38:22;6.50;;;4.30;;
58260;SDS011;44058;52.898;6.502;2023-04-10T14:40:49;6.15;;;4.50;;
58260;SDS011;44058;52.898;6.502;2023-04-10T14:43:15;4.78;;;4.38;;
58260;SDS011;44058;52.898;6.502;2023-04-10T14:45:41;5.18;;;4.65;;
58260;SDS011;44058;52.898;6.502;2023-04-10T14:48:07;5.97;;;4.40;;
58260;SDS011;44058;52.898;6.502;2023-04-10T14:50:34;6.40;;;4.75;;
58260;SDS011;44058;52.898;6.502;2023-04-10T14:53:00;4.70;;;4.30;;
58260;SDS011;44058;52.898;6.502;2023-04-10T14:55:29;4.85;;;4.35;;
58260;SDS011;44058;52.898;6.502;2023-04-10T14:57:56;5.15;;;4.03;;
58260;SDS011;44058;52.898;6.502;2023-04-10T15:00:22;5.32;;;4.22;;
58260;SDS011;44058;52.898;6.502;2023-04-10T15:02:51;6.72;;;4.35;;
58260;SDS011;44058;52.898;6.502;2023-04-10T15:05:17;4.70;;;4.10;;
58260;SDS011;44058;52.898;6.502;2023-04-10T15:07:43;4.50;;;4.10;;
58260;SDS011;44058;52.898;6.502;2023-04-10T15:10:10;6.90;;;4.00;;